Flight Track Log - Related Links

Times and Time Zones

All times are in EDT time to prevent confusion due to time zone crossing. See the VNR104 flight status page for this flight to view local times or setup timezone preferences in your user account.

Time Position Orientation Groundspeed Altitude Reporting Facility
EDT Latitude Longitude Course Direction KTS MPH feet Rate Location/Type
Tue 05:10:21 PM 39.0667 -84.7333 270° West 187 215 4,100  Level Cincinnati TRACON
Tue 05:11:15 PM 39.0667 -84.7833 270° West 181 208 5,700 1,579 Climbing Cincinnati TRACON
Tue 05:12:15 PM 39.0667 -84.8667 270° West 232 267 7,100 1,345 Climbing Cincinnati TRACON
Tue 05:13:11 PM 39.0822 -84.9344 286° West 242 278 8,300 1,373 Climbing Indianapolis Center
Tue 05:14:13 PM 39.1067 -85.0244 289° West 264 304 9,800 774 Climbing Indianapolis Center
Tue 05:15:15 PM 39.1389 -85.1414 290° West 288 331 9,900 97 Climbing Indianapolis Center
Tue 05:16:17 PM 39.1681 -85.2458 290° West 304 350 10,000 48 Climbing Indianapolis Center
Tue 05:17:19 PM 39.1961 -85.3464 290° West 301 346 10,000  Level Indianapolis Center
Tue 05:18:21 PM 39.2242 -85.4497 289° West 304 350 10,000  Level Indianapolis Center
Tue 05:19:23 PM 39.2522 -85.5506 290° West 301 346 10,000  Level Indianapolis Center
Tue 05:20:25 PM 39.2803 -85.6525 290° West 302 348 10,000  Level Indianapolis Center
Tue 05:21:27 PM 39.3153 -85.7728 291° West 298 343 10,000  Level Indianapolis Center
Tue 05:22:29 PM 39.3778 -85.8433 319° Northwest 300 345 10,000 -48 Level Indianapolis Center
Tue 05:23:31 PM 39.4306 -85.9072 317° Northwest 268 308 9,900 -435 Descending Indianapolis Center
Tue 05:24:33 PM 39.4897 -85.9781 317° Northwest 286 329 9,100 -1,355 Descending Indianapolis Center
Tue 05:25:35 PM 39.5486 -86.0481 318° Northwest 289 333 7,100 -1,016 Descending Indianapolis Center
Tue 05:26:37 PM 39.6019 -86.1125 317° Northwest 272 313 7,000 -194 Descending Indianapolis Center
Tue 05:27:39 PM 39.6097 -86.1903 277° West 232 267 6,700 -1,355 Descending Indianapolis Center
Tue 05:28:41 PM 39.5661 -86.2636 232° Southwest 249 287 4,200 -2,032 Descending Indianapolis Center
Tue 05:29:43 PM 39.5967 -86.3308 301° West 239 275 2,500 -958 Descending Indianapolis Center
Tue 05:30:40 PM 39.6500 -86.3500 345° North 167 192 2,300 -537 Descending Indianapolis TRACON
Tue 05:31:46 PM 39.6833 -86.3333 21° North 121 139 1,400 -818 Descending Indianapolis TRACON
Tue 05:34:00 PM 39.7167 -86.2833 123° Southeast  Level FlightAware Approximate

Login

Don't have an account? Register now (free) for customized features, flight alerts, and more!